Terminal Aerodrome Forecast
Issued by NWS

Home | Current Version | Previous Version | Text Only | Print | Product List | Glossary On
Versions: 1 2 3 4 5 6 7 8 9 10 11 12 13 14
000
FTUS44 KOUN 042320
TAFPNC
TAF
KPNC 042320Z 0500/0524 27004KT P6SM SKC
     FM050900 17003KT 5SM BR SKC
     FM051100 17005KT 3SM BR SKC
      TEMPO 0512/0515 1SM BR
     FM051600 15009KT P6SM FEW250=

USA.gov is the U.S. government's official web portal to all federal, state and local government web resources and services.